sensor_id;sensor_type;location;lat;lon;timestamp;temperature;humidity
12827;DHT22;66927;48.812;9.118;2023-05-24T00:01:00;16.60;99.90
12827;DHT22;66927;48.812;9.118;2023-05-24T00:03:27;16.60;99.90
12827;DHT22;66927;48.812;9.118;2023-05-24T00:05:56;16.60;99.90
12827;DHT22;66927;48.812;9.118;2023-05-24T00:08:22;16.70;99.90
12827;DHT22;66927;48.812;9.118;2023-05-24T00:10:48;16.60;99.90
12827;DHT22;66927;48.812;9.118;2023-05-24T00:13:13;16.60;99.90
12827;DHT22;66927;48.812;9.118;2023-05-24T00:15:39;16.60;99.90
12827;DHT22;66927;48.812;9.118;2023-05-24T00:18:07;16.50;99.90
12827;DHT22;66927;48.812;9.118;2023-05-24T00:20:33;16.60;99.90
12827;DHT22;66927;48.812;9.118;2023-05-24T00:22:59;16.60;99.90
12827;DHT22;66927;48.812;9.118;2023-05-24T00:25:24;16.60;99.90
12827;DHT22;66927;48.812;9.118;2023-05-24T00:27:54;16.60;99.90
12827;DHT22;66927;48.812;9.118;2023-05-24T00:30:20;16.60;99.90
12827;DHT22;66927;48.812;9.118;2023-05-24T00:32:45;16.60;99.90
12827;DHT22;66927;48.812;9.118;2023-05-24T00:35:12;16.60;99.90
12827;DHT22;66927;48.812;9.118;2023-05-24T00:37:38;16.60;99.90
12827;DHT22;66927;48.812;9.118;2023-05-24T00:40:07;16.60;99.90
12827;DHT22;66927;48.812;9.118;2023-05-24T00:42:33;16.60;99.90
12827;DHT22;66927;48.812;9.118;2023-05-24T00:44:58;16.60;99.90
12827;DHT22;66927;48.812;9.118;2023-05-24T00:47:24;16.60;99.90
12827;DHT22;66927;48.812;9.118;2023-05-24T00:49:50;16.50;99.90
12827;DHT22;66927;48.812;9.118;2023-05-24T00:52:16;16.60;99.90
12827;DHT22;66927;48.812;9.118;2023-05-24T00:54:42;16.50;99.90
12827;DHT22;66927;48.812;9.118;2023-05-24T00:57:08;16.50;99.90
12827;DHT22;66927;48.812;9.118;2023-05-24T00:59:39;16.50;99.90
12827;DHT22;66927;48.812;9.118;2023-05-24T01:02:04;16.50;99.90
12827;DHT22;66927;48.812;9.118;2023-05-24T01:04:30;16.50;99.90
12827;DHT22;66927;48.812;9.118;2023-05-24T01:07:35;16.50;99.90
12827;DHT22;66927;48.812;9.118;2023-05-24T01:10:16;16.40;99.90
12827;DHT22;66927;48.812;9.118;2023-05-24T01:13:23;16.40;99.90
12827;DHT22;66927;48.812;9.118;2023-05-24T01:16:09;16.40;99.90
12827;DHT22;66927;48.812;9.118;2023-05-24T01:18:40;16.40;99.90
12827;DHT22;66927;48.812;9.118;2023-05-24T01:26:41;16.30;99.90
12827;DHT22;66927;48.812;9.118;2023-05-24T01:29:09;16.30;99.90
12827;DHT22;66927;48.812;9.118;2023-05-24T01:31:35;16.30;99.90
12827;DHT22;66927;48.812;9.118;2023-05-24T01:34:05;16.30;99.90
12827;DHT22;66927;48.812;9.118;2023-05-24T01:36:30;16.20;99.90
12827;DHT22;66927;48.812;9.118;2023-05-24T01:38:56;16.20;99.90
12827;DHT22;66927;48.812;9.118;2023-05-24T01:41:35;16.20;99.90
12827;DHT22;66927;48.812;9.118;2023-05-24T01:44:46;16.30;99.90
12827;DHT22;66927;48.812;9.118;2023-05-24T01:47:33;16.30;99.90
12827;DHT22;66927;48.812;9.118;2023-05-24T01:50:16;16.30;99.90
12827;DHT22;66927;48.812;9.118;2023-05-24T01:52:43;16.20;99.90
12827;DHT22;66927;48.812;9.118;2023-05-24T01:55:14;16.20;99.90
12827;DHT22;66927;48.812;9.118;2023-05-24T01:57:43;16.20;99.90
12827;DHT22;66927;48.812;9.118;2023-05-24T02:00:10;16.20;99.90
12827;DHT22;66927;48.812;9.118;2023-05-24T02:02:37;16.20;99.90
12827;DHT22;66927;48.812;9.118;2023-05-24T02:05:03;16.10;99.90
12827;DHT22;66927;48.812;9.118;2023-05-24T02:07:30;16.10;99.90
12827;DHT22;66927;48.812;9.118;2023-05-24T02:09:56;16.10;99.90
12827;DHT22;66927;48.812;9.118;2023-05-24T02:12:21;16.10;99.90
12827;DHT22;66927;48.812;9.118;2023-05-24T02:14:48;16.00;99.90
12827;DHT22;66927;48.812;9.118;2023-05-24T02:17:16;15.90;99.90
12827;DHT22;66927;48.812;9.118;2023-05-24T02:19:42;16.00;99.90
12827;DHT22;66927;48.812;9.118;2023-05-24T02:22:08;16.00;99.90
12827;DHT22;66927;48.812;9.118;2023-05-24T02:24:34;16.00;99.90
12827;DHT22;66927;48.812;9.118;2023-05-24T02:27:01;16.00;99.90
12827;DHT22;66927;48.812;9.118;2023-05-24T02:29:27;16.00;99.90
12827;DHT22;66927;48.812;9.118;2023-05-24T02:31:52;16.00;99.90
12827;DHT22;66927;48.812;9.118;2023-05-24T02:34:22;16.00;99.90
12827;DHT22;66927;48.812;9.118;2023-05-24T02:36:48;15.90;99.90
12827;DHT22;66927;48.812;9.118;2023-05-24T02:39:14;15.90;99.90
12827;DHT22;66927;48.812;9.118;2023-05-24T02:41:40;15.90;99.90
12827;DHT22;66927;48.812;9.118;2023-05-24T02:44:06;15.90;99.90
12827;DHT22;66927;48.812;9.118;2023-05-24T02:46:31;15.80;99.90
12827;DHT22;66927;48.812;9.118;2023-05-24T02:48:57;15.80;99.90
12827;DHT22;66927;48.812;9.118;2023-05-24T02:51:23;15.80;99.90
12827;DHT22;66927;48.812;9.118;2023-05-24T02:53:49;15.70;99.90
12827;DHT22;66927;48.812;9.118;2023-05-24T02:56:15;15.70;99.90
12827;DHT22;66927;48.812;9.118;2023-05-24T02:58:42;15.70;99.90
12827;DHT22;66927;48.812;9.118;2023-05-24T03:01:10;15.70;99.90
12827;DHT22;66927;48.812;9.118;2023-05-24T03:03:37;15.60;99.90
12827;DHT22;66927;48.812;9.118;2023-05-24T03:06:07;15.60;99.90
12827;DHT22;66927;48.812;9.118;2023-05-24T03:08:34;15.60;99.90
12827;DHT22;66927;48.812;9.118;2023-05-24T03:11:02;15.60;99.90
12827;DHT22;66927;48.812;9.118;2023-05-24T03:13:28;15.50;99.90
12827;DHT22;66927;48.812;9.118;2023-05-24T03:15:53;15.50;99.90
12827;DHT22;66927;48.812;9.118;2023-05-24T03:18:19;15.40;99.90
12827;DHT22;66927;48.812;9.118;2023-05-24T03:20:45;15.40;99.90
12827;DHT22;66927;48.812;9.118;2023-05-24T03:23:10;15.40;99.90
12827;DHT22;66927;48.812;9.118;2023-05-24T03:25:37;15.40;99.90
12827;DHT22;66927;48.812;9.118;2023-05-24T03:28:03;15.40;99.90
12827;DHT22;66927;48.812;9.118;2023-05-24T03:30:28;15.40;99.90
12827;DHT22;66927;48.812;9.118;2023-05-24T03:32:54;15.40;99.90
12827;DHT22;66927;48.812;9.118;2023-05-24T03:35:20;15.40;99.90
12827;DHT22;66927;48.812;9.118;2023-05-24T03:37:45;15.40;99.90
12827;DHT22;66927;48.812;9.118;2023-05-24T03:40:11;15.40;99.90
12827;DHT22;66927;48.812;9.118;2023-05-24T03:42:38;15.40;99.90
12827;DHT22;66927;48.812;9.118;2023-05-24T03:45:04;15.40;99.90
12827;DHT22;66927;48.812;9.118;2023-05-24T03:47:30;15.30;99.90
12827;DHT22;66927;48.812;9.118;2023-05-24T03:49:56;15.30;99.90
12827;DHT22;66927;48.812;9.118;2023-05-24T03:52:22;15.30;99.90
12827;DHT22;66927;48.812;9.118;2023-05-24T03:54:48;15.30;99.90
12827;DHT22;66927;48.812;9.118;2023-05-24T03:57:14;15.30;99.90
12827;DHT22;66927;48.812;9.118;2023-05-24T03:59:40;15.30;99.90
12827;DHT22;66927;48.812;9.118;2023-05-24T04:02:06;15.30;99.90
12827;DHT22;66927;48.812;9.118;2023-05-24T04:04:32;15.30;99.90
12827;DHT22;66927;48.812;9.118;2023-05-24T04:06:57;15.20;99.90
12827;DHT22;66927;48.812;9.118;2023-05-24T04:09:23;15.30;99.90
12827;DHT22;66927;48.812;9.118;2023-05-24T04:11:49;15.30;99.90
12827;DHT22;66927;48.812;9.118;2023-05-24T04:14:15;15.20;99.90
12827;DHT22;66927;48.812;9.118;2023-05-24T04:16:41;15.20;99.90
12827;DHT22;66927;48.812;9.118;2023-05-24T04:19:10;15.20;99.90
12827;DHT22;66927;48.812;9.118;2023-05-24T04:21:36;15.20;99.90
12827;DHT22;66927;48.812;9.118;2023-05-24T04:24:04;15.20;99.90
12827;DHT22;66927;48.812;9.118;2023-05-24T04:26:31;15.20;99.90
12827;DHT22;66927;48.812;9.118;2023-05-24T04:28:59;15.20;99.90
12827;DHT22;66927;48.812;9.118;2023-05-24T04:31:26;15.20;99.90
12827;DHT22;66927;48.812;9.118;2023-05-24T04:33:55;15.20;99.90
12827;DHT22;66927;48.812;9.118;2023-05-24T04:36:20;15.20;99.90
12827;DHT22;66927;48.812;9.118;2023-05-24T04:38:48;15.10;99.90
12827;DHT22;66927;48.812;9.118;2023-05-24T04:41:14;15.10;99.90
12827;DHT22;66927;48.812;9.118;2023-05-24T04:43:40;15.10;99.90
12827;DHT22;66927;48.812;9.118;2023-05-24T04:46:06;15.10;99.90
12827;DHT22;66927;48.812;9.118;2023-05-24T04:48:32;15.10;99.90
12827;DHT22;66927;48.812;9.118;2023-05-24T04:50:57;15.00;99.90
12827;DHT22;66927;48.812;9.118;2023-05-24T04:53:24;15.10;99.90
12827;DHT22;66927;48.812;9.118;2023-05-24T04:55:50;15.10;99.90
12827;DHT22;66927;48.812;9.118;2023-05-24T04:58:17;15.10;99.90
12827;DHT22;66927;48.812;9.118;2023-05-24T05:00:43;15.10;99.90
12827;DHT22;66927;48.812;9.118;2023-05-24T05:03:09;15.10;99.90
12827;DHT22;66927;48.812;9.118;2023-05-24T05:05:35;15.10;99.90
12827;DHT22;66927;48.812;9.118;2023-05-24T05:08:02;15.10;99.90
12827;DHT22;66927;48.812;9.118;2023-05-24T05:10:28;15.10;99.90
12827;DHT22;66927;48.812;9.118;2023-05-24T05:12:54;15.10;99.90
12827;DHT22;66927;48.812;9.118;2023-05-24T05:15:21;15.10;99.90
12827;DHT22;66927;48.812;9.118;2023-05-24T05:17:47;15.10;99.90
12827;DHT22;66927;48.812;9.118;2023-05-24T05:20:13;15.00;99.90
12827;DHT22;66927;48.812;9.118;2023-05-24T05:22:44;15.00;99.90
12827;DHT22;66927;48.812;9.118;2023-05-24T05:25:10;15.10;99.90
12827;DHT22;66927;48.812;9.118;2023-05-24T05:27:36;15.00;99.90
12827;DHT22;66927;48.812;9.118;2023-05-24T05:30:01;15.10;99.90
12827;DHT22;66927;48.812;9.118;2023-05-24T05:32:27;15.00;99.90
12827;DHT22;66927;48.812;9.118;2023-05-24T05:34:53;15.00;99.90
12827;DHT22;66927;48.812;9.118;2023-05-24T05:37:18;15.00;99.90
12827;DHT22;66927;48.812;9.118;2023-05-24T05:39:44;14.90;99.90
12827;DHT22;66927;48.812;9.118;2023-05-24T05:42:10;14.90;99.90
12827;DHT22;66927;48.812;9.118;2023-05-24T05:44:35;15.00;99.90
12827;DHT22;66927;48.812;9.118;2023-05-24T05:47:01;15.00;99.90
12827;DHT22;66927;48.812;9.118;2023-05-24T05:49:28;15.00;99.90
12827;DHT22;66927;48.812;9.118;2023-05-24T05:51:54;15.10;99.90
12827;DHT22;66927;48.812;9.118;2023-05-24T05:54:19;15.00;99.90
12827;DHT22;66927;48.812;9.118;2023-05-24T05:56:45;15.00;99.90
12827;DHT22;66927;48.812;9.118;2023-05-24T05:59:12;15.00;99.90
12827;DHT22;66927;48.812;9.118;2023-05-24T06:01:39;15.00;99.90
12827;DHT22;66927;48.812;9.118;2023-05-24T06:04:05;15.00;99.90
12827;DHT22;66927;48.812;9.118;2023-05-24T06:06:31;15.10;99.90
12827;DHT22;66927;48.812;9.118;2023-05-24T06:08:58;15.00;99.90
12827;DHT22;66927;48.812;9.118;2023-05-24T06:11:24;15.00;99.90
12827;DHT22;66927;48.812;9.118;2023-05-24T06:13:51;15.20;99.90
12827;DHT22;66927;48.812;9.118;2023-05-24T06:16:17;15.10;99.90
12827;DHT22;66927;48.812;9.118;2023-05-24T06:18:43;15.10;99.90
12827;DHT22;66927;48.812;9.118;2023-05-24T06:21:08;15.20;99.90
12827;DHT22;66927;48.812;9.118;2023-05-24T06:23:37;15.20;99.90
12827;DHT22;66927;48.812;9.118;2023-05-24T06:26:03;15.20;99.90
12827;DHT22;66927;48.812;9.118;2023-05-24T06:28:29;15.20;99.90
12827;DHT22;66927;48.812;9.118;2023-05-24T06:30:54;15.20;99.90
12827;DHT22;66927;48.812;9.118;2023-05-24T06:33:20;15.20;99.90
12827;DHT22;66927;48.812;9.118;2023-05-24T06:35:47;15.20;99.90
12827;DHT22;66927;48.812;9.118;2023-05-24T06:38:13;15.20;99.90
12827;DHT22;66927;48.812;9.118;2023-05-24T06:40:39;15.20;99.90
12827;DHT22;66927;48.812;9.118;2023-05-24T06:43:05;15.20;99.90
12827;DHT22;66927;48.812;9.118;2023-05-24T06:45:31;15.20;99.90
12827;DHT22;66927;48.812;9.118;2023-05-24T06:47:56;15.20;99.90
12827;DHT22;66927;48.812;9.118;2023-05-24T06:50:22;15.20;99.90
12827;DHT22;66927;48.812;9.118;2023-05-24T06:52:48;15.20;99.90
12827;DHT22;66927;48.812;9.118;2023-05-24T06:55:14;15.10;99.90
12827;DHT22;66927;48.812;9.118;2023-05-24T06:57:40;15.20;99.90
12827;DHT22;66927;48.812;9.118;2023-05-24T07:00:06;15.20;99.90
12827;DHT22;66927;48.812;9.118;2023-05-24T07:02:40;15.20;99.90
12827;DHT22;66927;48.812;9.118;2023-05-24T07:05:06;15.20;99.90
12827;DHT22;66927;48.812;9.118;2023-05-24T07:07:42;15.20;99.90
12827;DHT22;66927;48.812;9.118;2023-05-24T07:10:09;15.10;99.90
12827;DHT22;66927;48.812;9.118;2023-05-24T07:12:36;15.10;99.90
12827;DHT22;66927;48.812;9.118;2023-05-24T07:15:06;15.00;99.90
12827;DHT22;66927;48.812;9.118;2023-05-24T07:17:33;15.00;99.90
12827;DHT22;66927;48.812;9.118;2023-05-24T07:20:00;15.00;99.90
12827;DHT22;66927;48.812;9.118;2023-05-24T07:22:26;14.90;99.90
12827;DHT22;66927;48.812;9.118;2023-05-24T07:24:54;14.90;99.90
12827;DHT22;66927;48.812;9.118;2023-05-24T07:27:20;14.80;99.90
12827;DHT22;66927;48.812;9.118;2023-05-24T07:29:47;14.80;99.90
12827;DHT22;66927;48.812;9.118;2023-05-24T07:32:14;14.90;99.90
12827;DHT22;66927;48.812;9.118;2023-05-24T07:34:40;14.90;99.90
12827;DHT22;66927;48.812;9.118;2023-05-24T07:37:06;14.80;99.90
12827;DHT22;66927;48.812;9.118;2023-05-24T07:39:32;14.90;99.90
12827;DHT22;66927;48.812;9.118;2023-05-24T07:41:58;14.90;99.90
12827;DHT22;66927;48.812;9.118;2023-05-24T07:44:24;14.90;99.90
12827;DHT22;66927;48.812;9.118;2023-05-24T07:46:50;14.90;99.90
12827;DHT22;66927;48.812;9.118;2023-05-24T07:49:16;14.70;99.90
12827;DHT22;66927;48.812;9.118;2023-05-24T07:51:41;14.80;99.90
12827;DHT22;66927;48.812;9.118;2023-05-24T07:54:07;14.90;99.90
12827;DHT22;66927;48.812;9.118;2023-05-24T07:56:33;15.00;99.90
12827;DHT22;66927;48.812;9.118;2023-05-24T07:58:59;15.00;99.90
12827;DHT22;66927;48.812;9.118;2023-05-24T08:01:32;15.00;99.90
12827;DHT22;66927;48.812;9.118;2023-05-24T08:04:00;15.10;99.90
12827;DHT22;66927;48.812;9.118;2023-05-24T08:06:30;15.10;99.90
12827;DHT22;66927;48.812;9.118;2023-05-24T08:09:07;15.10;99.90
12827;DHT22;66927;48.812;9.118;2023-05-24T08:11:33;15.10;99.90
12827;DHT22;66927;48.812;9.118;2023-05-24T08:13:59;15.10;99.90
12827;DHT22;66927;48.812;9.118;2023-05-24T08:16:24;15.10;99.90
12827;DHT22;66927;48.812;9.118;2023-05-24T08:18:50;15.10;99.90
12827;DHT22;66927;48.812;9.118;2023-05-24T08:21:16;15.10;99.90
12827;DHT22;66927;48.812;9.118;2023-05-24T08:23:42;15.10;99.90
12827;DHT22;66927;48.812;9.118;2023-05-24T08:26:08;15.00;99.90
12827;DHT22;66927;48.812;9.118;2023-05-24T08:28:33;15.00;99.90
12827;DHT22;66927;48.812;9.118;2023-05-24T08:31:00;15.10;99.90
12827;DHT22;66927;48.812;9.118;2023-05-24T08:33:25;15.10;99.90
12827;DHT22;66927;48.812;9.118;2023-05-24T08:46:36;15.00;99.90
12827;DHT22;66927;48.812;9.118;2023-05-24T08:49:02;15.40;99.90
12827;DHT22;66927;48.812;9.118;2023-05-24T08:51:30;15.40;99.90
12827;DHT22;66927;48.812;9.118;2023-05-24T08:53:59;15.50;99.90
12827;DHT22;66927;48.812;9.118;2023-05-24T08:56:26;15.50;99.90
12827;DHT22;66927;48.812;9.118;2023-05-24T08:58:53;15.50;99.90
12827;DHT22;66927;48.812;9.118;2023-05-24T09:01:20;15.50;99.90
12827;DHT22;66927;48.812;9.118;2023-05-24T09:03:47;15.50;99.90
12827;DHT22;66927;48.812;9.118;2023-05-24T09:06:16;15.50;99.90
12827;DHT22;66927;48.812;9.118;2023-05-24T09:08:42;15.40;99.90
12827;DHT22;66927;48.812;9.118;2023-05-24T09:11:10;15.40;99.90
12827;DHT22;66927;48.812;9.118;2023-05-24T09:13:36;15.50;99.90
12827;DHT22;66927;48.812;9.118;2023-05-24T09:16:02;15.50;99.90
12827;DHT22;66927;48.812;9.118;2023-05-24T09:18:28;15.50;99.90
12827;DHT22;66927;48.812;9.118;2023-05-24T09:20:54;15.40;99.90
12827;DHT22;66927;48.812;9.118;2023-05-24T09:23:20;15.30;99.90
12827;DHT22;66927;48.812;9.118;2023-05-24T09:25:47;15.10;99.90
12827;DHT22;66927;48.812;9.118;2023-05-24T09:28:16;15.10;99.90
12827;DHT22;66927;48.812;9.118;2023-05-24T09:30:43;15.10;99.90
12827;DHT22;66927;48.812;9.118;2023-05-24T09:33:09;15.20;99.90
12827;DHT22;66927;48.812;9.118;2023-05-24T09:35:37;15.20;99.90
12827;DHT22;66927;48.812;9.118;2023-05-24T09:38:06;15.20;99.90
12827;DHT22;66927;48.812;9.118;2023-05-24T09:40:32;15.20;99.90
12827;DHT22;66927;48.812;9.118;2023-05-24T09:43:05;15.20;99.90
12827;DHT22;66927;48.812;9.118;2023-05-24T09:45:46;15.20;99.90
12827;DHT22;66927;48.812;9.118;2023-05-24T09:48:14;15.20;99.90
12827;DHT22;66927;48.812;9.118;2023-05-24T09:50:43;15.10;99.90
12827;DHT22;66927;48.812;9.118;2023-05-24T09:53:12;15.20;99.90
12827;DHT22;66927;48.812;9.118;2023-05-24T09:55:38;15.20;99.90
12827;DHT22;66927;48.812;9.118;2023-05-24T09:58:07;15.30;99.90
12827;DHT22;66927;48.812;9.118;2023-05-24T10:00:37;15.20;99.90
12827;DHT22;66927;48.812;9.118;2023-05-24T10:03:08;15.20;99.90
12827;DHT22;66927;48.812;9.118;2023-05-24T10:05:36;15.20;99.90
12827;DHT22;66927;48.812;9.118;2023-05-24T10:08:03;15.10;99.90
12827;DHT22;66927;48.812;9.118;2023-05-24T10:10:33;15.10;99.90
12827;DHT22;66927;48.812;9.118;2023-05-24T10:13:02;15.10;99.90
12827;DHT22;66927;48.812;9.118;2023-05-24T10:15:28;15.10;99.90
12827;DHT22;66927;48.812;9.118;2023-05-24T10:17:56;15.10;99.90
12827;DHT22;66927;48.812;9.118;2023-05-24T10:20:22;15.10;99.90
12827;DHT22;66927;48.812;9.118;2023-05-24T10:22:58;15.20;99.90
12827;DHT22;66927;48.812;9.118;2023-05-24T10:25:27;15.10;99.90
12827;DHT22;66927;48.812;9.118;2023-05-24T10:27:56;15.20;99.90
12827;DHT22;66927;48.812;9.118;2023-05-24T10:30:35;15.20;99.90
12827;DHT22;66927;48.812;9.118;2023-05-24T10:33:05;15.20;99.90
12827;DHT22;66927;48.812;9.118;2023-05-24T10:35:34;15.20;99.90
12827;DHT22;66927;48.812;9.118;2023-05-24T10:38:09;15.20;99.90
12827;DHT22;66927;48.812;9.118;2023-05-24T10:40:47;15.20;99.90
12827;DHT22;66927;48.812;9.118;2023-05-24T10:43:13;15.10;99.90
12827;DHT22;66927;48.812;9.118;2023-05-24T10:45:39;15.10;99.90
12827;DHT22;66927;48.812;9.118;2023-05-24T10:50:42;15.20;99.90
12827;DHT22;66927;48.812;9.118;2023-05-24T10:53:11;15.10;99.90
12827;DHT22;66927;48.812;9.118;2023-05-24T10:56:07;15.10;99.90
12827;DHT22;66927;48.812;9.118;2023-05-24T11:01:29;15.20;99.90
12827;DHT22;66927;48.812;9.118;2023-05-24T11:04:11;15.20;99.90
12827;DHT22;66927;48.812;9.118;2023-05-24T11:06:59;15.20;99.90
12827;DHT22;66927;48.812;9.118;2023-05-24T11:09:26;15.30;99.90
12827;DHT22;66927;48.812;9.118;2023-05-24T11:12:00;15.30;99.90
12827;DHT22;66927;48.812;9.118;2023-05-24T11:14:30;15.40;99.90
12827;DHT22;66927;48.812;9.118;2023-05-24T11:16:57;15.40;99.90
12827;DHT22;66927;48.812;9.118;2023-05-24T11:19:33;15.20;99.90
12827;DHT22;66927;48.812;9.118;2023-05-24T11:22:03;15.30;99.90
12827;DHT22;66927;48.812;9.118;2023-05-24T11:24:29;15.40;99.90
12827;DHT22;66927;48.812;9.118;2023-05-24T11:27:00;15.50;99.90
12827;DHT22;66927;48.812;9.118;2023-05-24T11:29:29;15.60;99.90
12827;DHT22;66927;48.812;9.118;2023-05-24T11:31:58;15.60;99.90
12827;DHT22;66927;48.812;9.118;2023-05-24T11:34:29;15.60;99.90
12827;DHT22;66927;48.812;9.118;2023-05-24T11:36:57;15.50;99.90
12827;DHT22;66927;48.812;9.118;2023-05-24T11:39:23;15.60;99.90
12827;DHT22;66927;48.812;9.118;2023-05-24T11:41:53;15.50;99.90
12827;DHT22;66927;48.812;9.118;2023-05-24T11:44:18;15.60;99.90
12827;DHT22;66927;48.812;9.118;2023-05-24T11:46:45;15.50;99.90
12827;DHT22;66927;48.812;9.118;2023-05-24T11:49:16;15.80;99.90
12827;DHT22;66927;48.812;9.118;2023-05-24T11:51:42;16.00;99.90
12827;DHT22;66927;48.812;9.118;2023-05-24T11:54:08;16.10;99.90
12827;DHT22;66927;48.812;9.118;2023-05-24T11:56:35;16.20;99.40
12827;DHT22;66927;48.812;9.118;2023-05-24T11:59:14;16.30;98.20
12827;DHT22;66927;48.812;9.118;2023-05-24T12:01:40;16.40;98.40
12827;DHT22;66927;48.812;9.118;2023-05-24T12:04:06;16.50;98.60
12827;DHT22;66927;48.812;9.118;2023-05-24T12:06:52;16.60;98.50
12827;DHT22;66927;48.812;9.118;2023-05-24T12:09:19;16.70;97.90
12827;DHT22;66927;48.812;9.118;2023-05-24T12:11:49;16.60;98.00
12827;DHT22;66927;48.812;9.118;2023-05-24T12:14:23;16.80;97.90
12827;DHT22;66927;48.812;9.118;2023-05-24T12:16:56;17.00;97.30
12827;DHT22;66927;48.812;9.118;2023-05-24T12:19:22;17.10;97.30
12827;DHT22;66927;48.812;9.118;2023-05-24T12:21:57;17.10;97.70
12827;DHT22;66927;48.812;9.118;2023-05-24T12:24:25;17.10;97.80
12827;DHT22;66927;48.812;9.118;2023-05-24T12:26:56;17.00;97.80
12827;DHT22;66927;48.812;9.118;2023-05-24T12:29:22;17.10;97.40
12827;DHT22;66927;48.812;9.118;2023-05-24T12:31:48;16.80;97.40
12827;DHT22;66927;48.812;9.118;2023-05-24T12:34:17;16.80;97.40
12827;DHT22;66927;48.812;9.118;2023-05-24T12:36:44;16.90;97.40
12827;DHT22;66927;48.812;9.118;2023-05-24T12:39:28;17.00;97.70
12827;DHT22;66927;48.812;9.118;2023-05-24T12:41:56;17.10;97.60
12827;DHT22;66927;48.812;9.118;2023-05-24T12:44:27;17.20;97.10
12827;DHT22;66927;48.812;9.118;2023-05-24T12:46:54;17.10;97.10
12827;DHT22;66927;48.812;9.118;2023-05-24T12:49:21;17.20;97.50
12827;DHT22;66927;48.812;9.118;2023-05-24T12:51:49;17.40;97.10
12827;DHT22;66927;48.812;9.118;2023-05-24T12:54:18;17.40;97.00
12827;DHT22;66927;48.812;9.118;2023-05-24T12:56:45;17.50;96.80
12827;DHT22;66927;48.812;9.118;2023-05-24T12:59:12;17.50;96.30
12827;DHT22;66927;48.812;9.118;2023-05-24T13:01:38;17.50;95.90
12827;DHT22;66927;48.812;9.118;2023-05-24T13:04:05;17.30;96.60
12827;DHT22;66927;48.812;9.118;2023-05-24T13:06:33;17.40;96.20
12827;DHT22;66927;48.812;9.118;2023-05-24T13:09:03;17.50;96.70
12827;DHT22;66927;48.812;9.118;2023-05-24T13:11:28;17.50;96.50
12827;DHT22;66927;48.812;9.118;2023-05-24T13:13:57;17.60;96.00
12827;DHT22;66927;48.812;9.118;2023-05-24T13:16:24;17.70;95.20
12827;DHT22;66927;48.812;9.118;2023-05-24T13:18:51;17.70;95.00
12827;DHT22;66927;48.812;9.118;2023-05-24T13:21:18;17.60;94.60
12827;DHT22;66927;48.812;9.118;2023-05-24T13:24:07;17.50;94.90
12827;DHT22;66927;48.812;9.118;2023-05-24T13:26:33;17.70;94.80
12827;DHT22;66927;48.812;9.118;2023-05-24T13:29:03;17.80;95.10
12827;DHT22;66927;48.812;9.118;2023-05-24T13:31:35;17.80;94.80
12827;DHT22;66927;48.812;9.118;2023-05-24T13:34:09;17.80;94.50
12827;DHT22;66927;48.812;9.118;2023-05-24T13:36:43;17.70;95.10
12827;DHT22;66927;48.812;9.118;2023-05-24T13:39:09;17.80;95.00
12827;DHT22;66927;48.812;9.118;2023-05-24T13:41:35;17.70;94.50
12827;DHT22;66927;48.812;9.118;2023-05-24T13:44:03;17.70;94.70
12827;DHT22;66927;48.812;9.118;2023-05-24T13:46:29;17.70;94.60
12827;DHT22;66927;48.812;9.118;2023-05-24T13:48:55;17.80;95.00
12827;DHT22;66927;48.812;9.118;2023-05-24T13:51:22;17.90;94.90
12827;DHT22;66927;48.812;9.118;2023-05-24T13:53:49;18.00;94.70
12827;DHT22;66927;48.812;9.118;2023-05-24T13:56:15;18.10;94.60
12827;DHT22;66927;48.812;9.118;2023-05-24T13:58:42;18.10;94.30
12827;DHT22;66927;48.812;9.118;2023-05-24T14:01:09;18.20;93.80
12827;DHT22;66927;48.812;9.118;2023-05-24T14:03:38;18.20;93.40
12827;DHT22;66927;48.812;9.118;2023-05-24T14:06:07;18.10;93.90
12827;DHT22;66927;48.812;9.118;2023-05-24T14:08:33;18.10;93.40
12827;DHT22;66927;48.812;9.118;2023-05-24T14:11:05;17.80;92.90
12827;DHT22;66927;48.812;9.118;2023-05-24T14:13:36;17.70;93.40
12827;DHT22;66927;48.812;9.118;2023-05-24T14:16:04;17.80;93.20
12827;DHT22;66927;48.812;9.118;2023-05-24T14:18:30;17.70;92.70
12827;DHT22;66927;48.812;9.118;2023-05-24T14:20:56;17.70;92.70
12827;DHT22;66927;48.812;9.118;2023-05-24T14:23:22;17.70;92.50
12827;DHT22;66927;48.812;9.118;2023-05-24T14:25:48;17.70;93.00
12827;DHT22;66927;48.812;9.118;2023-05-24T14:28:14;17.80;93.30
12827;DHT22;66927;48.812;9.118;2023-05-24T14:30:40;17.70;93.00
12827;DHT22;66927;48.812;9.118;2023-05-24T14:33:06;17.80;93.10
12827;DHT22;66927;48.812;9.118;2023-05-24T14:35:32;17.80;93.70
12827;DHT22;66927;48.812;9.118;2023-05-24T14:38:03;17.80;93.60
12827;DHT22;66927;48.812;9.118;2023-05-24T14:40:30;17.80;93.80
12827;DHT22;66927;48.812;9.118;2023-05-24T14:42:59;17.80;93.20
12827;DHT22;66927;48.812;9.118;2023-05-24T14:45:25;17.80;93.40
12827;DHT22;66927;48.812;9.118;2023-05-24T14:47:51;17.90;93.60
12827;DHT22;66927;48.812;9.118;2023-05-24T14:50:16;17.90;93.70
12827;DHT22;66927;48.812;9.118;2023-05-24T14:52:42;18.00;92.70
12827;DHT22;66927;48.812;9.118;2023-05-24T14:55:09;18.00;91.90
12827;DHT22;66927;48.812;9.118;2023-05-24T14:57:34;18.10;91.80
12827;DHT22;66927;48.812;9.118;2023-05-24T15:00:01;18.00;92.50
12827;DHT22;66927;48.812;9.118;2023-05-24T15:02:27;18.00;92.10
12827;DHT22;66927;48.812;9.118;2023-05-24T15:04:59;18.00;92.20
12827;DHT22;66927;48.812;9.118;2023-05-24T15:07:25;18.00;93.00
12827;DHT22;66927;48.812;9.118;2023-05-24T15:09:51;18.00;92.70
12827;DHT22;66927;48.812;9.118;2023-05-24T15:12:18;18.00;92.50
12827;DHT22;66927;48.812;9.118;2023-05-24T15:14:47;18.00;92.40
12827;DHT22;66927;48.812;9.118;2023-05-24T15:17:13;18.00;92.30
12827;DHT22;66927;48.812;9.118;2023-05-24T15:19:38;18.10;92.30
12827;DHT22;66927;48.812;9.118;2023-05-24T15:22:07;18.10;91.00
12827;DHT22;66927;48.812;9.118;2023-05-24T15:24:33;18.20;90.50
12827;DHT22;66927;48.812;9.118;2023-05-24T15:26:59;18.10;90.90
12827;DHT22;66927;48.812;9.118;2023-05-24T15:29:26;18.10;91.00
12827;DHT22;66927;48.812;9.118;2023-05-24T15:31:53;18.10;90.50
12827;DHT22;66927;48.812;9.118;2023-05-24T15:34:19;18.20;90.10
12827;DHT22;66927;48.812;9.118;2023-05-24T15:36:45;18.20;90.10
12827;DHT22;66927;48.812;9.118;2023-05-24T15:39:14;18.10;90.40
12827;DHT22;66927;48.812;9.118;2023-05-24T15:41:41;18.20;90.30
12827;DHT22;66927;48.812;9.118;2023-05-24T15:44:08;18.10;89.40
12827;DHT22;66927;48.812;9.118;2023-05-24T15:46:34;18.00;90.30
12827;DHT22;66927;48.812;9.118;2023-05-24T15:49:01;18.00;92.00
12827;DHT22;66927;48.812;9.118;2023-05-24T15:51:27;18.00;95.10
12827;DHT22;66927;48.812;9.118;2023-05-24T15:53:56;17.90;97.30
12827;DHT22;66927;48.812;9.118;2023-05-24T15:56:22;17.80;97.00